sensor_id;sensor_type;location;lat;lon;timestamp;temperature;humidity
45715;DHT22;31430;61.646;24.704;2022-08-05T00:01:00;16.10;99.90
45715;DHT22;31430;61.646;24.704;2022-08-05T00:03:26;16.10;99.90
45715;DHT22;31430;61.646;24.704;2022-08-05T00:05:51;16.20;99.90
45715;DHT22;31430;61.646;24.704;2022-08-05T00:08:17;16.20;99.90
45715;DHT22;31430;61.646;24.704;2022-08-05T00:10:43;16.20;99.90
45715;DHT22;31430;61.646;24.704;2022-08-05T00:13:09;16.30;99.90
45715;DHT22;31430;61.646;24.704;2022-08-05T00:15:35;16.40;99.90
45715;DHT22;31430;61.646;24.704;2022-08-05T00:18:00;16.40;99.90
45715;DHT22;31430;61.646;24.704;2022-08-05T00:20:26;16.50;99.90
45715;DHT22;31430;61.646;24.704;2022-08-05T00:22:52;16.50;99.90
45715;DHT22;31430;61.646;24.704;2022-08-05T00:25:17;16.60;99.90
45715;DHT22;31430;61.646;24.704;2022-08-05T00:27:43;16.60;99.90
45715;DHT22;31430;61.646;24.704;2022-08-05T00:30:09;16.60;99.90
45715;DHT22;31430;61.646;24.704;2022-08-05T00:32:35;16.60;99.90
45715;DHT22;31430;61.646;24.704;2022-08-05T00:35:01;16.50;99.90
45715;DHT22;31430;61.646;24.704;2022-08-05T00:37:26;16.40;99.90
45715;DHT22;31430;61.646;24.704;2022-08-05T00:39:52;16.40;99.90
45715;DHT22;31430;61.646;24.704;2022-08-05T00:42:35;16.30;99.90
45715;DHT22;31430;61.646;24.704;2022-08-05T00:45:03;16.30;99.90
45715;DHT22;31430;61.646;24.704;2022-08-05T00:47:29;16.30;99.90
45715;DHT22;31430;61.646;24.704;2022-08-05T00:49:55;16.40;99.90
45715;DHT22;31430;61.646;24.704;2022-08-05T00:52:21;16.40;99.90
45715;DHT22;31430;61.646;24.704;2022-08-05T00:54:47;16.40;99.90
45715;DHT22;31430;61.646;24.704;2022-08-05T00:57:13;16.40;99.90
45715;DHT22;31430;61.646;24.704;2022-08-05T00:59:40;16.40;99.90
45715;DHT22;31430;61.646;24.704;2022-08-05T01:02:06;16.40;99.90
45715;DHT22;31430;61.646;24.704;2022-08-05T01:04:31;16.40;99.90
45715;DHT22;31430;61.646;24.704;2022-08-05T01:06:57;16.60;99.90
45715;DHT22;31430;61.646;24.704;2022-08-05T01:09:23;16.70;99.90
45715;DHT22;31430;61.646;24.704;2022-08-05T01:11:51;16.70;99.90
45715;DHT22;31430;61.646;24.704;2022-08-05T01:17:10;16.80;99.90
45715;DHT22;31430;61.646;24.704;2022-08-05T01:19:50;16.90;99.90
45715;DHT22;31430;61.646;24.704;2022-08-05T01:25:45;17.00;99.90
45715;DHT22;31430;61.646;24.704;2022-08-05T01:28:12;16.90;99.90
45715;DHT22;31430;61.646;24.704;2022-08-05T01:30:44;16.90;99.90
45715;DHT22;31430;61.646;24.704;2022-08-05T01:33:11;16.90;99.90
45715;DHT22;31430;61.646;24.704;2022-08-05T01:35:40;16.90;99.90
45715;DHT22;31430;61.646;24.704;2022-08-05T01:38:07;16.90;99.90
45715;DHT22;31430;61.646;24.704;2022-08-05T01:40:35;16.90;99.90
45715;DHT22;31430;61.646;24.704;2022-08-05T01:43:03;16.90;99.90
45715;DHT22;31430;61.646;24.704;2022-08-05T01:45:29;16.90;99.90
45715;DHT22;31430;61.646;24.704;2022-08-05T01:47:59;16.80;99.90
45715;DHT22;31430;61.646;24.704;2022-08-05T01:50:37;16.80;99.90
45715;DHT22;31430;61.646;24.704;2022-08-05T01:53:06;16.90;99.90
45715;DHT22;31430;61.646;24.704;2022-08-05T01:55:34;17.00;99.90
45715;DHT22;31430;61.646;24.704;2022-08-05T01:58:03;17.00;99.90
45715;DHT22;31430;61.646;24.704;2022-08-05T02:00:32;17.00;99.90
45715;DHT22;31430;61.646;24.704;2022-08-05T02:03:07;17.00;99.90
45715;DHT22;31430;61.646;24.704;2022-08-05T02:05:35;17.10;99.90
45715;DHT22;31430;61.646;24.704;2022-08-05T02:08:03;17.20;99.90
45715;DHT22;31430;61.646;24.704;2022-08-05T02:10:38;17.20;99.90
45715;DHT22;31430;61.646;24.704;2022-08-05T02:13:27;17.20;99.90
45715;DHT22;31430;61.646;24.704;2022-08-05T02:16:10;17.10;99.90
45715;DHT22;31430;61.646;24.704;2022-08-05T02:18:57;17.20;99.90
45715;DHT22;31430;61.646;24.704;2022-08-05T02:21:58;17.50;99.90
45715;DHT22;31430;61.646;24.704;2022-08-05T02:24:33;17.50;99.90
45715;DHT22;31430;61.646;24.704;2022-08-05T02:27:02;17.50;99.90
45715;DHT22;31430;61.646;24.704;2022-08-05T02:29:32;17.50;99.90
45715;DHT22;31430;61.646;24.704;2022-08-05T02:31:59;17.50;99.90
45715;DHT22;31430;61.646;24.704;2022-08-05T02:34:29;17.50;99.90
45715;DHT22;31430;61.646;24.704;2022-08-05T02:36:58;17.40;99.90
45715;DHT22;31430;61.646;24.704;2022-08-05T02:39:26;17.50;99.90
45715;DHT22;31430;61.646;24.704;2022-08-05T02:41:54;17.50;99.90
45715;DHT22;31430;61.646;24.704;2022-08-05T02:44:23;17.50;99.90
45715;DHT22;31430;61.646;24.704;2022-08-05T02:46:50;17.40;99.90
45715;DHT22;31430;61.646;24.704;2022-08-05T02:49:16;17.30;99.90
45715;DHT22;31430;61.646;24.704;2022-08-05T02:51:43;17.30;99.90
45715;DHT22;31430;61.646;24.704;2022-08-05T02:54:09;17.30;99.90
45715;DHT22;31430;61.646;24.704;2022-08-05T02:56:36;17.30;99.90
45715;DHT22;31430;61.646;24.704;2022-08-05T02:59:03;17.40;99.90
45715;DHT22;31430;61.646;24.704;2022-08-05T03:01:30;17.50;99.90
45715;DHT22;31430;61.646;24.704;2022-08-05T03:04:00;17.60;99.90
45715;DHT22;31430;61.646;24.704;2022-08-05T03:06:26;17.70;99.90
45715;DHT22;31430;61.646;24.704;2022-08-05T03:08:53;17.80;99.90
45715;DHT22;31430;61.646;24.704;2022-08-05T03:11:22;17.80;99.90
45715;DHT22;31430;61.646;24.704;2022-08-05T03:13:49;17.80;99.90
45715;DHT22;31430;61.646;24.704;2022-08-05T03:16:15;17.90;99.90
45715;DHT22;31430;61.646;24.704;2022-08-05T03:18:41;18.00;99.90
45715;DHT22;31430;61.646;24.704;2022-08-05T03:21:07;18.10;99.90
45715;DHT22;31430;61.646;24.704;2022-08-05T03:23:33;18.20;99.90
45715;DHT22;31430;61.646;24.704;2022-08-05T03:26:00;18.30;99.90
45715;DHT22;31430;61.646;24.704;2022-08-05T03:28:26;18.50;99.90
45715;DHT22;31430;61.646;24.704;2022-08-05T03:30:53;18.60;99.90
45715;DHT22;31430;61.646;24.704;2022-08-05T03:33:20;18.80;99.90
45715;DHT22;31430;61.646;24.704;2022-08-05T03:35:46;18.80;99.90
45715;DHT22;31430;61.646;24.704;2022-08-05T03:38:13;18.90;99.90
45715;DHT22;31430;61.646;24.704;2022-08-05T03:40:40;19.00;99.90
45715;DHT22;31430;61.646;24.704;2022-08-05T03:43:06;19.10;99.90
45715;DHT22;31430;61.646;24.704;2022-08-05T03:45:32;19.20;99.90
45715;DHT22;31430;61.646;24.704;2022-08-05T03:47:57;19.30;99.90
45715;DHT22;31430;61.646;24.704;2022-08-05T03:50:24;19.30;99.90
45715;DHT22;31430;61.646;24.704;2022-08-05T03:53:04;19.40;99.90
45715;DHT22;31430;61.646;24.704;2022-08-05T03:55:36;19.50;99.90
45715;DHT22;31430;61.646;24.704;2022-08-05T03:58:04;19.60;99.90
45715;DHT22;31430;61.646;24.704;2022-08-05T04:00:35;19.70;99.90
45715;DHT22;31430;61.646;24.704;2022-08-05T04:03:02;19.80;99.90
45715;DHT22;31430;61.646;24.704;2022-08-05T04:05:31;19.80;99.90
45715;DHT22;31430;61.646;24.704;2022-08-05T04:07:59;19.90;99.90
45715;DHT22;31430;61.646;24.704;2022-08-05T04:10:26;20.00;99.90
45715;DHT22;31430;61.646;24.704;2022-08-05T04:12:52;20.10;99.90
45715;DHT22;31430;61.646;24.704;2022-08-05T04:15:18;20.30;99.90
45715;DHT22;31430;61.646;24.704;2022-08-05T04:17:44;20.20;99.90
45715;DHT22;31430;61.646;24.704;2022-08-05T04:20:20;20.20;99.90
45715;DHT22;31430;61.646;24.704;2022-08-05T04:22:46;20.50;99.90
45715;DHT22;31430;61.646;24.704;2022-08-05T04:25:12;20.50;99.90
45715;DHT22;31430;61.646;24.704;2022-08-05T04:27:38;20.50;99.90
45715;DHT22;31430;61.646;24.704;2022-08-05T04:30:05;20.50;99.90
45715;DHT22;31430;61.646;24.704;2022-08-05T04:32:31;20.60;99.90
45715;DHT22;31430;61.646;24.704;2022-08-05T04:34:57;20.70;99.90
45715;DHT22;31430;61.646;24.704;2022-08-05T04:37:22;20.80;99.90
45715;DHT22;31430;61.646;24.704;2022-08-05T04:39:48;20.90;99.90
45715;DHT22;31430;61.646;24.704;2022-08-05T04:42:14;21.00;99.90
45715;DHT22;31430;61.646;24.704;2022-08-05T04:44:40;21.00;99.90
45715;DHT22;31430;61.646;24.704;2022-08-05T04:47:05;21.10;99.90
45715;DHT22;31430;61.646;24.704;2022-08-05T04:49:31;21.20;99.90
45715;DHT22;31430;61.646;24.704;2022-08-05T04:51:57;21.30;99.90
45715;DHT22;31430;61.646;24.704;2022-08-05T04:54:23;21.20;99.10
45715;DHT22;31430;61.646;24.704;2022-08-05T04:56:52;21.40;99.30
45715;DHT22;31430;61.646;24.704;2022-08-05T04:59:18;21.40;99.10
45715;DHT22;31430;61.646;24.704;2022-08-05T05:01:45;21.60;99.30
45715;DHT22;31430;61.646;24.704;2022-08-05T05:04:10;21.60;97.40
45715;DHT22;31430;61.646;24.704;2022-08-05T05:06:37;21.50;98.00
45715;DHT22;31430;61.646;24.704;2022-08-05T05:09:03;21.60;98.70
45715;DHT22;31430;61.646;24.704;2022-08-05T05:11:28;21.70;96.30
45715;DHT22;31430;61.646;24.704;2022-08-05T05:13:54;21.80;96.40
45715;DHT22;31430;61.646;24.704;2022-08-05T05:16:19;21.80;95.60
45715;DHT22;31430;61.646;24.704;2022-08-05T05:18:45;21.80;96.40
45715;DHT22;31430;61.646;24.704;2022-08-05T05:21:11;21.90;96.80
45715;DHT22;31430;61.646;24.704;2022-08-05T05:23:37;21.90;94.80
45715;DHT22;31430;61.646;24.704;2022-08-05T05:26:03;22.10;94.10
45715;DHT22;31430;61.646;24.704;2022-08-05T05:28:29;21.90;95.00
45715;DHT22;31430;61.646;24.704;2022-08-05T05:30:54;22.10;94.80
45715;DHT22;31430;61.646;24.704;2022-08-05T05:33:20;22.10;94.60
45715;DHT22;31430;61.646;24.704;2022-08-05T05:35:46;22.20;93.50
45715;DHT22;31430;61.646;24.704;2022-08-05T05:38:12;22.20;93.80
45715;DHT22;31430;61.646;24.704;2022-08-05T05:40:38;22.10;92.60
45715;DHT22;31430;61.646;24.704;2022-08-05T05:43:03;22.20;91.80
45715;DHT22;31430;61.646;24.704;2022-08-05T05:45:29;22.30;91.90
45715;DHT22;31430;61.646;24.704;2022-08-05T05:47:57;22.30;92.00
45715;DHT22;31430;61.646;24.704;2022-08-05T05:50:23;22.50;91.50
45715;DHT22;31430;61.646;24.704;2022-08-05T05:52:49;22.50;90.30
45715;DHT22;31430;61.646;24.704;2022-08-05T05:55:16;22.60;90.50
45715;DHT22;31430;61.646;24.704;2022-08-05T05:57:43;22.70;90.10
45715;DHT22;31430;61.646;24.704;2022-08-05T06:00:17;22.70;90.40
45715;DHT22;31430;61.646;24.704;2022-08-05T06:02:44;22.70;89.90
45715;DHT22;31430;61.646;24.704;2022-08-05T06:05:11;22.70;90.90
45715;DHT22;31430;61.646;24.704;2022-08-05T06:07:37;22.70;89.50
45715;DHT22;31430;61.646;24.704;2022-08-05T06:10:04;22.80;89.50
45715;DHT22;31430;61.646;24.704;2022-08-05T06:12:30;22.80;88.90
45715;DHT22;31430;61.646;24.704;2022-08-05T06:14:56;23.00;89.70
45715;DHT22;31430;61.646;24.704;2022-08-05T06:17:21;23.10;88.00
45715;DHT22;31430;61.646;24.704;2022-08-05T06:19:47;23.00;88.80
45715;DHT22;31430;61.646;24.704;2022-08-05T06:22:22;23.20;87.90
45715;DHT22;31430;61.646;24.704;2022-08-05T06:24:47;23.10;86.40
45715;DHT22;31430;61.646;24.704;2022-08-05T06:27:13;23.20;88.10
45715;DHT22;31430;61.646;24.704;2022-08-05T06:29:39;23.30;85.30
45715;DHT22;31430;61.646;24.704;2022-08-05T06:32:04;23.40;85.50
45715;DHT22;31430;61.646;24.704;2022-08-05T06:34:30;23.50;85.80
45715;DHT22;31430;61.646;24.704;2022-08-05T06:36:56;23.70;84.70
45715;DHT22;31430;61.646;24.704;2022-08-05T06:39:21;23.60;84.60
45715;DHT22;31430;61.646;24.704;2022-08-05T06:41:48;23.70;82.20
45715;DHT22;31430;61.646;24.704;2022-08-05T06:44:14;23.70;83.60
45715;DHT22;31430;61.646;24.704;2022-08-05T06:46:40;23.90;83.20
45715;DHT22;31430;61.646;24.704;2022-08-05T06:49:05;23.80;80.00
45715;DHT22;31430;61.646;24.704;2022-08-05T06:51:31;23.70;81.00
45715;DHT22;31430;61.646;24.704;2022-08-05T06:53:58;23.90;83.40
45715;DHT22;31430;61.646;24.704;2022-08-05T06:56:24;24.30;83.80
45715;DHT22;31430;61.646;24.704;2022-08-05T06:58:50;24.30;80.60
45715;DHT22;31430;61.646;24.704;2022-08-05T07:01:16;24.50;80.50
45715;DHT22;31430;61.646;24.704;2022-08-05T07:03:41;24.70;80.90
45715;DHT22;31430;61.646;24.704;2022-08-05T07:06:07;24.70;79.30
45715;DHT22;31430;61.646;24.704;2022-08-05T07:08:33;25.00;78.50
45715;DHT22;31430;61.646;24.704;2022-08-05T07:10:58;24.80;78.70
45715;DHT22;31430;61.646;24.704;2022-08-05T07:13:24;24.80;79.90
45715;DHT22;31430;61.646;24.704;2022-08-05T07:16:09;24.90;77.60
45715;DHT22;31430;61.646;24.704;2022-08-05T07:18:53;25.20;78.60
45715;DHT22;31430;61.646;24.704;2022-08-05T07:21:18;25.50;76.50
45715;DHT22;31430;61.646;24.704;2022-08-05T07:23:44;25.40;77.60
45715;DHT22;31430;61.646;24.704;2022-08-05T07:26:10;25.70;78.10
45715;DHT22;31430;61.646;24.704;2022-08-05T07:28:36;25.80;77.30
45715;DHT22;31430;61.646;24.704;2022-08-05T07:31:01;25.60;75.70
45715;DHT22;31430;61.646;24.704;2022-08-05T07:33:27;25.90;77.40
45715;DHT22;31430;61.646;24.704;2022-08-05T07:35:52;26.10;75.80
45715;DHT22;31430;61.646;24.704;2022-08-05T07:38:18;26.20;74.80
45715;DHT22;31430;61.646;24.704;2022-08-05T07:40:44;26.30;75.80
45715;DHT22;31430;61.646;24.704;2022-08-05T07:43:11;26.60;74.70
45715;DHT22;31430;61.646;24.704;2022-08-05T07:45:39;26.70;73.10
45715;DHT22;31430;61.646;24.704;2022-08-05T07:48:06;26.70;71.60
45715;DHT22;31430;61.646;24.704;2022-08-05T07:50:31;26.40;72.10
45715;DHT22;31430;61.646;24.704;2022-08-05T07:52:57;26.10;72.00
45715;DHT22;31430;61.646;24.704;2022-08-05T07:55:23;25.80;73.60
45715;DHT22;31430;61.646;24.704;2022-08-05T07:57:49;25.30;73.10
45715;DHT22;31430;61.646;24.704;2022-08-05T08:00:15;25.70;75.50
45715;DHT22;31430;61.646;24.704;2022-08-05T08:02:41;26.10;77.80
45715;DHT22;31430;61.646;24.704;2022-08-05T08:05:09;26.70;74.40
45715;DHT22;31430;61.646;24.704;2022-08-05T08:07:35;27.00;73.40
45715;DHT22;31430;61.646;24.704;2022-08-05T08:10:00;27.20;71.40
45715;DHT22;31430;61.646;24.704;2022-08-05T08:12:26;27.10;68.70
45715;DHT22;31430;61.646;24.704;2022-08-05T08:14:52;27.20;70.90
45715;DHT22;31430;61.646;24.704;2022-08-05T08:17:17;27.10;70.80
45715;DHT22;31430;61.646;24.704;2022-08-05T08:19:43;27.00;69.50
45715;DHT22;31430;61.646;24.704;2022-08-05T08:22:10;27.00;70.40
45715;DHT22;31430;61.646;24.704;2022-08-05T08:24:36;27.00;71.20
45715;DHT22;31430;61.646;24.704;2022-08-05T08:27:03;26.90;70.80
45715;DHT22;31430;61.646;24.704;2022-08-05T08:29:29;26.80;70.30
45715;DHT22;31430;61.646;24.704;2022-08-05T08:31:54;26.70;71.20
45715;DHT22;31430;61.646;24.704;2022-08-05T08:34:23;26.80;73.30
45715;DHT22;31430;61.646;24.704;2022-08-05T08:36:48;27.20;72.90
45715;DHT22;31430;61.646;24.704;2022-08-05T08:39:14;27.40;70.70
45715;DHT22;31430;61.646;24.704;2022-08-05T08:41:43;27.50;70.10
45715;DHT22;31430;61.646;24.704;2022-08-05T08:44:11;27.10;68.60
45715;DHT22;31430;61.646;24.704;2022-08-05T08:46:38;27.30;70.10
45715;DHT22;31430;61.646;24.704;2022-08-05T08:49:04;27.30;67.50
45715;DHT22;31430;61.646;24.704;2022-08-05T08:51:34;27.30;69.80
45715;DHT22;31430;61.646;24.704;2022-08-05T08:54:00;27.60;68.00
45715;DHT22;31430;61.646;24.704;2022-08-05T08:56:26;27.60;65.20
45715;DHT22;31430;61.646;24.704;2022-08-05T08:58:52;27.20;66.10
45715;DHT22;31430;61.646;24.704;2022-08-05T09:01:18;27.20;66.30
45715;DHT22;31430;61.646;24.704;2022-08-05T09:03:49;27.70;65.30
45715;DHT22;31430;61.646;24.704;2022-08-05T09:06:15;28.00;65.40
45715;DHT22;31430;61.646;24.704;2022-08-05T09:08:41;28.30;65.00
45715;DHT22;31430;61.646;24.704;2022-08-05T09:11:07;27.70;63.30
45715;DHT22;31430;61.646;24.704;2022-08-05T09:13:33;27.10;66.50
45715;DHT22;31430;61.646;24.704;2022-08-05T09:15:59;27.00;66.90
45715;DHT22;31430;61.646;24.704;2022-08-05T09:18:26;27.90;67.00
45715;DHT22;31430;61.646;24.704;2022-08-05T09:20:51;28.20;66.00
45715;DHT22;31430;61.646;24.704;2022-08-05T09:23:18;28.10;65.50
45715;DHT22;31430;61.646;24.704;2022-08-05T09:25:47;28.20;64.80
45715;DHT22;31430;61.646;24.704;2022-08-05T09:30:44;28.10;64.90
45715;DHT22;31430;61.646;24.704;2022-08-05T09:33:09;28.20;64.00
45715;DHT22;31430;61.646;24.704;2022-08-05T09:35:35;28.10;65.00
45715;DHT22;31430;61.646;24.704;2022-08-05T09:38:04;28.50;63.20
45715;DHT22;31430;61.646;24.704;2022-08-05T09:40:35;28.00;64.90
45715;DHT22;31430;61.646;24.704;2022-08-05T09:43:04;27.90;63.50
45715;DHT22;31430;61.646;24.704;2022-08-05T09:45:43;27.90;64.40
45715;DHT22;31430;61.646;24.704;2022-08-05T09:48:31;27.70;66.20
45715;DHT22;31430;61.646;24.704;2022-08-05T09:51:02;27.60;66.90
45715;DHT22;31430;61.646;24.704;2022-08-05T09:53:29;27.70;66.20
45715;DHT22;31430;61.646;24.704;2022-08-05T09:55:59;27.50;66.40
45715;DHT22;31430;61.646;24.704;2022-08-05T09:58:26;27.50;65.10
45715;DHT22;31430;61.646;24.704;2022-08-05T10:01:01;27.40;66.50
45715;DHT22;31430;61.646;24.704;2022-08-05T10:03:28;27.30;67.70
45715;DHT22;31430;61.646;24.704;2022-08-05T10:08:27;27.80;66.00
45715;DHT22;31430;61.646;24.704;2022-08-05T10:10:53;27.80;65.40
45715;DHT22;31430;61.646;24.704;2022-08-05T10:13:36;27.90;64.80
45715;DHT22;31430;61.646;24.704;2022-08-05T10:16:04;27.80;66.60
45715;DHT22;31430;61.646;24.704;2022-08-05T10:18:30;28.10;65.60
45715;DHT22;31430;61.646;24.704;2022-08-05T10:21:02;28.20;65.00
45715;DHT22;31430;61.646;24.704;2022-08-05T10:23:31;28.20;63.70
45715;DHT22;31430;61.646;24.704;2022-08-05T10:26:15;28.10;62.50
45715;DHT22;31430;61.646;24.704;2022-08-05T10:28:44;28.10;63.90
45715;DHT22;31430;61.646;24.704;2022-08-05T10:31:12;27.80;63.30
45715;DHT22;31430;61.646;24.704;2022-08-05T10:33:38;27.60;65.60
45715;DHT22;31430;61.646;24.704;2022-08-05T10:36:05;27.50;64.90
45715;DHT22;31430;61.646;24.704;2022-08-05T10:38:31;27.50;64.30
45715;DHT22;31430;61.646;24.704;2022-08-05T10:41:21;27.90;65.90
45715;DHT22;31430;61.646;24.704;2022-08-05T10:43:58;28.30;63.30
45715;DHT22;31430;61.646;24.704;2022-08-05T10:46:47;28.20;64.30
45715;DHT22;31430;61.646;24.704;2022-08-05T10:49:14;28.30;63.20
45715;DHT22;31430;61.646;24.704;2022-08-05T10:54:08;28.20;64.00
45715;DHT22;31430;61.646;24.704;2022-08-05T10:59:30;28.00;63.00
45715;DHT22;31430;61.646;24.704;2022-08-05T11:04:42;28.20;62.80
45715;DHT22;31430;61.646;24.704;2022-08-05T11:07:08;28.80;62.20
45715;DHT22;31430;61.646;24.704;2022-08-05T11:12:01;28.80;61.00
45715;DHT22;31430;61.646;24.704;2022-08-05T11:14:32;28.30;60.60
45715;DHT22;31430;61.646;24.704;2022-08-05T11:19:49;27.70;63.00
45715;DHT22;31430;61.646;24.704;2022-08-05T11:25:35;27.70;63.90
45715;DHT22;31430;61.646;24.704;2022-08-05T11:33:28;27.30;65.40
45715;DHT22;31430;61.646;24.704;2022-08-05T11:35:56;27.10;63.90
45715;DHT22;31430;61.646;24.704;2022-08-05T11:43:33;27.20;64.00
45715;DHT22;31430;61.646;24.704;2022-08-05T11:45:59;27.10;65.20
45715;DHT22;31430;61.646;24.704;2022-08-05T11:48:25;27.20;64.00
45715;DHT22;31430;61.646;24.704;2022-08-05T11:50:53;27.30;64.00
45715;DHT22;31430;61.646;24.704;2022-08-05T11:53:19;27.40;64.40
45715;DHT22;31430;61.646;24.704;2022-08-05T11:55:53;27.20;62.50
45715;DHT22;31430;61.646;24.704;2022-08-05T12:01:04;27.10;63.50
45715;DHT22;31430;61.646;24.704;2022-08-05T12:03:50;27.10;64.50
45715;DHT22;31430;61.646;24.704;2022-08-05T12:06:19;27.00;63.30
45715;DHT22;31430;61.646;24.704;2022-08-05T12:08:52;26.70;64.80
45715;DHT22;31430;61.646;24.704;2022-08-05T12:16:19;26.20;64.50
45715;DHT22;31430;61.646;24.704;2022-08-05T12:18:45;26.10;65.50
45715;DHT22;31430;61.646;24.704;2022-08-05T12:21:12;26.30;64.90
45715;DHT22;31430;61.646;24.704;2022-08-05T12:23:38;26.40;63.90
45715;DHT22;31430;61.646;24.704;2022-08-05T12:26:05;26.50;64.40
45715;DHT22;31430;61.646;24.704;2022-08-05T12:28:37;26.60;64.40
45715;DHT22;31430;61.646;24.704;2022-08-05T12:31:04;27.00;63.00
45715;DHT22;31430;61.646;24.704;2022-08-05T12:33:30;27.30;63.40
45715;DHT22;31430;61.646;24.704;2022-08-05T12:35:56;27.40;62.50
45715;DHT22;31430;61.646;24.704;2022-08-05T12:38:22;27.20;62.10
45715;DHT22;31430;61.646;24.704;2022-08-05T12:40:48;27.20;64.20
45715;DHT22;31430;61.646;24.704;2022-08-05T12:43:14;27.20;62.10
45715;DHT22;31430;61.646;24.704;2022-08-05T12:45:53;27.20;63.00
45715;DHT22;31430;61.646;24.704;2022-08-05T12:48:19;27.30;64.10
45715;DHT22;31430;61.646;24.704;2022-08-05T12:51:08;27.30;64.20
45715;DHT22;31430;61.646;24.704;2022-08-05T12:53:40;27.10;62.80
45715;DHT22;31430;61.646;24.704;2022-08-05T12:56:22;27.00;63.40
45715;DHT22;31430;61.646;24.704;2022-08-05T12:59:10;26.80;62.30
45715;DHT22;31430;61.646;24.704;2022-08-05T13:01:37;26.60;62.70
45715;DHT22;31430;61.646;24.704;2022-08-05T13:04:03;26.50;62.60
45715;DHT22;31430;61.646;24.704;2022-08-05T13:06:29;26.50;62.10
45715;DHT22;31430;61.646;24.704;2022-08-05T13:08:54;26.30;61.40
45715;DHT22;31430;61.646;24.704;2022-08-05T13:11:22;26.30;63.90
45715;DHT22;31430;61.646;24.704;2022-08-05T13:13:48;26.20;62.60
45715;DHT22;31430;61.646;24.704;2022-08-05T13:16:15;26.20;62.70
45715;DHT22;31430;61.646;24.704;2022-08-05T13:18:50;26.20;62.30
45715;DHT22;31430;61.646;24.704;2022-08-05T13:21:16;26.40;62.80
45715;DHT22;31430;61.646;24.704;2022-08-05T13:23:42;26.10;62.10
45715;DHT22;31430;61.646;24.704;2022-08-05T13:26:08;26.00;62.90
45715;DHT22;31430;61.646;24.704;2022-08-05T13:28:33;26.00;62.60
45715;DHT22;31430;61.646;24.704;2022-08-05T13:30:59;25.90;62.80
45715;DHT22;31430;61.646;24.704;2022-08-05T13:33:24;25.80;64.00
45715;DHT22;31430;61.646;24.704;2022-08-05T13:35:50;25.70;61.90
45715;DHT22;31430;61.646;24.704;2022-08-05T13:38:16;25.70;62.10
45715;DHT22;31430;61.646;24.704;2022-08-05T13:40:41;25.60;62.40
45715;DHT22;31430;61.646;24.704;2022-08-05T13:43:07;25.60;63.30
45715;DHT22;31430;61.646;24.704;2022-08-05T13:45:33;25.70;63.80
45715;DHT22;31430;61.646;24.704;2022-08-05T13:47:58;25.70;64.10
45715;DHT22;31430;61.646;24.704;2022-08-05T13:50:24;25.60;63.10
45715;DHT22;31430;61.646;24.704;2022-08-05T13:52:49;25.60;64.10
45715;DHT22;31430;61.646;24.704;2022-08-05T13:55:15;25.60;64.00
45715;DHT22;31430;61.646;24.704;2022-08-05T13:57:41;25.50;65.70
45715;DHT22;31430;61.646;24.704;2022-08-05T14:00:06;25.50;63.00
45715;DHT22;31430;61.646;24.704;2022-08-05T14:02:32;25.60;62.50
45715;DHT22;31430;61.646;24.704;2022-08-05T14:04:58;25.70;64.40
45715;DHT22;31430;61.646;24.704;2022-08-05T14:07:41;25.60;63.40
45715;DHT22;31430;61.646;24.704;2022-08-05T14:10:19;25.60;63.20
45715;DHT22;31430;61.646;24.704;2022-08-05T14:12:47;25.60;63.80
45715;DHT22;31430;61.646;24.704;2022-08-05T14:15:13;25.50;63.60
45715;DHT22;31430;61.646;24.704;2022-08-05T14:17:39;25.50;65.00
45715;DHT22;31430;61.646;24.704;2022-08-05T14:20:06;25.60;64.80
45715;DHT22;31430;61.646;24.704;2022-08-05T14:22:32;25.70;64.90
45715;DHT22;31430;61.646;24.704;2022-08-05T14:24:58;25.60;64.70
45715;DHT22;31430;61.646;24.704;2022-08-05T14:27:24;25.70;64.30
45715;DHT22;31430;61.646;24.704;2022-08-05T14:29:49;25.70;64.50
45715;DHT22;31430;61.646;24.704;2022-08-05T14:32:15;25.60;64.70
45715;DHT22;31430;61.646;24.704;2022-08-05T14:34:40;25.70;66.60
45715;DHT22;31430;61.646;24.704;2022-08-05T14:37:06;25.70;65.30
45715;DHT22;31430;61.646;24.704;2022-08-05T14:39:32;25.60;67.00
45715;DHT22;31430;61.646;24.704;2022-08-05T14:41:58;25.60;65.70
45715;DHT22;31430;61.646;24.704;2022-08-05T14:44:24;25.50;66.20
45715;DHT22;31430;61.646;24.704;2022-08-05T14:46:50;25.50;66.60
45715;DHT22;31430;61.646;24.704;2022-08-05T14:49:16;25.50;65.50
45715;DHT22;31430;61.646;24.704;2022-08-05T14:51:42;25.50;63.40
45715;DHT22;31430;61.646;24.704;2022-08-05T14:54:07;25.40;64.90
45715;DHT22;31430;61.646;24.704;2022-08-05T14:56:34;25.50;63.60
45715;DHT22;31430;61.646;24.704;2022-08-05T14:59:00;25.50;64.30
45715;DHT22;31430;61.646;24.704;2022-08-05T15:01:26;25.40;64.20
45715;DHT22;31430;61.646;24.704;2022-08-05T15:03:52;25.30;63.90
45715;DHT22;31430;61.646;24.704;2022-08-05T15:06:17;25.30;63.70
45715;DHT22;31430;61.646;24.704;2022-08-05T15:08:44;25.30;64.20
45715;DHT22;31430;61.646;24.704;2022-08-05T15:11:09;25.20;64.50
45715;DHT22;31430;61.646;24.704;2022-08-05T15:13:35;25.20;65.50
45715;DHT22;31430;61.646;24.704;2022-08-05T15:16:01;25.30;65.90
45715;DHT22;31430;61.646;24.704;2022-08-05T15:18:27;25.20;65.60
45715;DHT22;31430;61.646;24.704;2022-08-05T15:20:53;25.10;65.90
45715;DHT22;31430;61.646;24.704;2022-08-05T15:23:19;25.20;66.80
45715;DHT22;31430;61.646;24.704;2022-08-05T15:25:45;25.30;67.00
45715;DHT22;31430;61.646;24.704;2022-08-05T15:28:11;25.20;67.30
45715;DHT22;31430;61.646;24.704;2022-08-05T15:30:37;25.30;66.80
45715;DHT22;31430;61.646;24.704;2022-08-05T15:33:03;25.30;67.90
45715;DHT22;31430;61.646;24.704;2022-08-05T15:35:29;25.30;67.80
45715;DHT22;31430;61.646;24.704;2022-08-05T15:37:55;25.30;68.00
45715;DHT22;31430;61.646;24.704;2022-08-05T15:40:21;25.30;67.70
45715;DHT22;31430;61.646;24.704;2022-08-05T15:42:47;25.20;67.10
45715;DHT22;31430;61.646;24.704;2022-08-05T15:45:13;25.20;67.80
45715;DHT22;31430;61.646;24.704;2022-08-05T15:47:40;25.20;68.20
45715;DHT22;31430;61.646;24.704;2022-08-05T15:50:07;25.30;67.80
45715;DHT22;31430;61.646;24.704;2022-08-05T15:52:33;25.30;67.10
45715;DHT22;31430;61.646;24.704;2022-08-05T15:55:00;25.20;66.90
45715;DHT22;31430;61.646;24.704;2022-08-05T15:57:25;25.20;67.90
45715;DHT22;31430;61.646;24.704;2022-08-05T15:59:51;25.40;67.70
45715;DHT22;31430;61.646;24.704;2022-08-05T16:02:17;25.40;67.40
45715;DHT22;31430;61.646;24.704;2022-08-05T16:04:42;25.20;68.10